createdAt,value
2023-05-21T00:00:40.169Z,1.27
2023-05-21T00:01:40.155Z,1.35
2023-05-21T00:02:40.298Z,1.47
2023-05-21T00:03:40.277Z,1.41
2023-05-21T00:04:40.249Z,1.37
2023-05-21T00:05:40.347Z,1.41
2023-05-21T00:06:40.346Z,1.39
2023-05-21T00:07:40.384Z,1.42
2023-05-21T00:08:40.424Z,1.41
2023-05-21T00:09:40.444Z,1.43
2023-05-21T00:10:40.497Z,1.43
2023-05-21T00:11:40.529Z,1.56
2023-05-21T00:12:40.544Z,1.71
2023-05-21T00:13:40.600Z,1.91
2023-05-21T00:14:40.602Z,1.95
2023-05-21T00:15:40.634Z,1.97
2023-05-21T00:16:40.672Z,2.15
2023-05-21T00:17:40.701Z,2.29
2023-05-21T00:18:40.663Z,2.43
2023-05-21T00:19:40.745Z,2.52
2023-05-21T00:20:40.662Z,2.57
2023-05-21T00:21:40.638Z,2.63
2023-05-21T00:22:40.634Z,2.66
2023-05-21T00:23:40.649Z,2.75
2023-05-21T00:24:40.649Z,2.72
2023-05-21T00:25:40.650Z,2.86
2023-05-21T00:26:40.657Z,2.84
2023-05-21T00:27:40.637Z,2.88
2023-05-21T00:28:40.653Z,2.96
2023-05-21T00:29:42.316Z,2.95
2023-05-21T00:30:40.673Z,2.99
2023-05-21T00:31:40.666Z,3.10
2023-05-21T00:32:40.666Z,3.12
2023-05-21T00:33:40.665Z,3.17
2023-05-21T00:34:40.671Z,3.18
2023-05-21T00:35:40.668Z,3.30
2023-05-21T00:36:40.633Z,3.29
2023-05-21T00:37:40.606Z,3.34
2023-05-21T00:38:40.602Z,3.48
2023-05-21T00:39:40.583Z,3.37
2023-05-21T00:40:40.593Z,3.27
2023-05-21T00:41:41.375Z,3.23
2023-05-21T00:42:40.582Z,3.28
2023-05-21T00:43:40.583Z,3.22
2023-05-21T00:44:40.574Z,3.21
2023-05-21T00:45:40.561Z,3.00
2023-05-21T00:46:40.554Z,3.02
2023-05-21T00:47:40.555Z,2.98
2023-05-21T00:48:40.552Z,2.99
2023-05-21T00:49:40.542Z,2.95
2023-05-21T00:50:40.521Z,3.01
2023-05-21T00:51:40.523Z,3.12
2023-05-21T00:52:40.496Z,3.08
2023-05-21T00:53:40.503Z,3.08
2023-05-21T00:54:40.502Z,3.06
2023-05-21T00:55:40.516Z,3.10
2023-05-21T00:56:40.511Z,3.10
2023-05-21T00:57:40.493Z,3.27
2023-05-21T00:58:40.474Z,3.35
2023-05-21T00:59:40.435Z,3.55
2023-05-21T01:00:40.485Z,3.58
2023-05-21T01:01:40.482Z,3.64
2023-05-21T01:02:40.563Z,3.69
2023-05-21T01:03:40.482Z,3.75
2023-05-21T01:04:40.453Z,3.81
2023-05-21T01:05:40.426Z,3.86
2023-05-21T01:06:40.444Z,3.95
2023-05-21T01:07:40.439Z,3.94
2023-05-21T01:08:40.398Z,4.02
2023-05-21T01:09:40.410Z,4.12
2023-05-21T01:10:40.404Z,4.20
2023-05-21T01:11:40.396Z,4.36
2023-05-21T01:12:40.376Z,4.43
2023-05-21T01:13:40.364Z,4.27
2023-05-21T01:14:40.400Z,4.37
2023-05-21T01:15:40.388Z,4.43
2023-05-21T01:16:40.449Z,4.51
2023-05-21T01:17:40.406Z,4.40
2023-05-21T01:18:40.420Z,4.78
2023-05-21T01:19:40.393Z,4.78
2023-05-21T01:20:40.342Z,4.83
2023-05-21T01:21:40.348Z,4.86
2023-05-21T01:22:40.308Z,4.89
2023-05-21T01:23:40.295Z,4.68
2023-05-21T01:24:40.287Z,4.78
2023-05-21T01:25:40.317Z,4.79
2023-05-21T01:26:40.283Z,4.82
2023-05-21T01:27:40.267Z,4.92
2023-05-21T01:28:40.303Z,4.99
2023-05-21T01:29:40.276Z,4.78
2023-05-21T01:30:40.305Z,4.73
2023-05-21T01:31:40.253Z,4.82
2023-05-21T01:32:40.291Z,4.81
2023-05-21T01:33:40.296Z,4.78
2023-05-21T01:34:40.220Z,4.74
2023-05-21T01:35:40.266Z,4.80
2023-05-21T01:36:40.229Z,4.83
2023-05-21T01:37:40.243Z,4.71
2023-05-21T01:38:40.294Z,4.70
2023-05-21T01:39:40.227Z,4.67
2023-05-21T01:40:40.206Z,4.65
2023-05-21T01:41:40.190Z,4.59
2023-05-21T01:42:41.930Z,4.42
2023-05-21T01:43:40.196Z,4.39
2023-05-21T01:44:40.186Z,4.29
2023-05-21T01:45:40.188Z,4.29
2023-05-21T01:46:40.190Z,4.25
2023-05-21T01:47:40.197Z,4.24
2023-05-21T01:48:40.150Z,4.17
2023-05-21T01:49:40.124Z,4.07
2023-05-21T01:50:40.135Z,4.11
2023-05-21T01:51:40.136Z,4.07
2023-05-21T01:52:40.110Z,4.08
2023-05-21T01:53:40.106Z,4.03
2023-05-21T01:54:40.139Z,4.03
2023-05-21T01:55:40.169Z,3.97
2023-05-21T01:56:40.110Z,4.02
2023-05-21T01:57:40.110Z,4.19
2023-05-21T01:58:40.096Z,4.17
2023-05-21T01:59:40.088Z,4.35
2023-05-21T02:00:40.128Z,4.21
2023-05-21T02:01:40.119Z,4.29
2023-05-21T02:02:40.142Z,4.40
2023-05-21T02:03:40.108Z,4.38
2023-05-21T02:04:40.043Z,4.62
2023-05-21T02:05:40.064Z,4.78
2023-05-21T02:06:40.055Z,4.95
2023-05-21T02:07:40.057Z,4.80
2023-05-21T02:08:40.090Z,4.92
2023-05-21T02:09:40.105Z,5.12
2023-05-21T02:10:40.133Z,5.14
2023-05-21T02:11:40.154Z,5.29
2023-05-21T02:12:40.173Z,5.24
2023-05-21T02:13:40.201Z,5.29
2023-05-21T02:14:40.202Z,5.35
2023-05-21T02:15:40.238Z,5.32
2023-05-21T02:16:40.377Z,5.43
2023-05-21T02:17:40.298Z,5.44
2023-05-21T02:18:40.263Z,5.45
2023-05-21T02:19:40.310Z,5.33
2023-05-21T02:20:40.352Z,5.40
2023-05-21T02:21:40.335Z,5.31
2023-05-21T02:22:40.399Z,5.35
2023-05-21T02:23:40.435Z,5.18
2023-05-21T02:24:40.464Z,5.12
2023-05-21T02:25:40.506Z,5.06
2023-05-21T02:26:40.519Z,4.91
2023-05-21T02:27:40.582Z,5.06
2023-05-21T02:28:40.588Z,4.94
2023-05-21T02:29:40.633Z,4.91
2023-05-21T02:30:40.687Z,4.89
2023-05-21T02:31:40.746Z,4.82
2023-05-21T02:32:40.825Z,4.70
2023-05-21T02:33:40.854Z,4.81
2023-05-21T02:34:40.833Z,4.94
2023-05-21T02:35:40.942Z,4.96
2023-05-21T02:36:40.940Z,4.94
2023-05-21T02:37:41.008Z,4.83
2023-05-21T02:38:41.051Z,4.92
2023-05-21T02:39:41.106Z,4.94
2023-05-21T02:40:41.125Z,4.87
2023-05-21T02:41:41.180Z,4.69
2023-05-21T02:42:41.239Z,4.67
2023-05-21T02:43:41.936Z,4.74
2023-05-21T02:44:41.308Z,4.53
2023-05-21T02:45:41.391Z,4.58
2023-05-21T02:46:41.417Z,4.45
2023-05-21T02:47:41.553Z,4.59
2023-05-21T02:48:41.479Z,4.33
2023-05-21T02:49:41.556Z,4.30
2023-05-21T02:50:41.585Z,4.37
2023-05-21T02:51:41.657Z,4.25
2023-05-21T02:52:41.693Z,4.28
2023-05-21T02:53:41.735Z,4.19
2023-05-21T02:54:41.754Z,4.19
2023-05-21T02:55:41.829Z,4.11
2023-05-21T02:56:41.857Z,4.12
2023-05-21T02:57:41.900Z,4.09
2023-05-21T02:58:41.934Z,4.08
2023-05-21T02:59:41.964Z,4.16
2023-05-21T03:00:42.092Z,3.95
2023-05-21T03:01:42.100Z,3.96
2023-05-21T03:02:42.240Z,3.84
2023-05-21T03:03:42.207Z,3.73
2023-05-21T03:04:42.184Z,3.80
2023-05-21T03:05:42.301Z,3.66
2023-05-21T03:06:42.264Z,3.58
2023-05-21T03:07:42.341Z,3.41
2023-05-21T03:08:42.374Z,3.36
2023-05-21T03:09:42.482Z,3.24
2023-05-21T03:10:42.452Z,3.18
2023-05-21T03:11:42.460Z,3.14
2023-05-21T03:12:42.553Z,3.17
2023-05-21T03:13:42.588Z,3.05
2023-05-21T03:14:42.687Z,2.90
2023-05-21T03:15:42.699Z,2.90
2023-05-21T03:16:42.696Z,2.84
2023-05-21T03:17:42.816Z,2.92
2023-05-21T03:18:42.795Z,2.83
2023-05-21T03:19:42.881Z,2.84
2023-05-21T03:20:42.900Z,2.76
2023-05-21T03:21:42.922Z,2.78
2023-05-21T03:22:42.958Z,2.77
2023-05-21T03:23:42.988Z,2.75
2023-05-21T03:24:43.048Z,2.89
2023-05-21T03:25:43.094Z,2.97
2023-05-21T03:26:43.164Z,2.98
2023-05-21T03:27:43.232Z,3.09
2023-05-21T03:28:43.224Z,3.18
2023-05-21T03:29:43.301Z,3.15
2023-05-21T03:30:43.310Z,3.06
2023-05-21T03:31:43.368Z,2.98
2023-05-21T03:32:43.452Z,2.96
2023-05-21T03:33:43.471Z,2.96
2023-05-21T03:34:43.502Z,2.90
2023-05-21T03:35:43.575Z,2.80
2023-05-21T03:36:43.656Z,2.85
2023-05-21T03:37:43.651Z,2.77
2023-05-21T03:38:43.704Z,2.83
2023-05-21T03:39:43.749Z,2.80
2023-05-21T03:40:43.791Z,2.76
2023-05-21T03:41:43.855Z,2.80
2023-05-21T03:42:43.888Z,2.80
2023-05-21T03:43:43.946Z,2.79
2023-05-21T03:44:43.996Z,2.75
2023-05-21T03:45:44.657Z,2.75
2023-05-21T03:46:44.118Z,2.75
2023-05-21T03:47:44.229Z,2.71
2023-05-21T03:48:44.230Z,2.86
2023-05-21T03:49:44.287Z,2.80
2023-05-21T03:50:44.334Z,2.74
2023-05-21T03:51:44.406Z,2.71
2023-05-21T03:52:44.449Z,2.85
2023-05-21T03:53:44.502Z,2.80
2023-05-21T03:54:44.542Z,2.83
2023-05-21T03:55:44.621Z,2.77
2023-05-21T03:56:44.636Z,2.72
2023-05-21T03:57:44.705Z,2.81
2023-05-21T03:58:44.761Z,2.89
2023-05-21T03:59:44.837Z,2.96
2023-05-21T04:00:44.922Z,3.05
2023-05-21T04:01:44.930Z,3.06
2023-05-21T04:02:45.056Z,3.09
2023-05-21T04:03:45.203Z,3.07
2023-05-21T04:04:45.086Z,3.14
2023-05-21T04:05:45.199Z,3.10
2023-05-21T04:06:45.262Z,3.15
2023-05-21T04:07:45.270Z,3.24
2023-05-21T04:08:45.325Z,3.30
2023-05-21T04:09:45.386Z,3.36
2023-05-21T04:10:45.452Z,3.38
2023-05-21T04:11:45.514Z,3.45
2023-05-21T04:12:45.541Z,3.51
2023-05-21T04:13:45.631Z,3.52
2023-05-21T04:14:45.683Z,3.63
2023-05-21T04:15:45.774Z,3.80
2023-05-21T04:16:45.808Z,3.82
2023-05-21T04:17:45.887Z,4.09
2023-05-21T04:18:45.935Z,4.24
2023-05-21T04:19:46.004Z,4.26
2023-05-21T04:20:46.057Z,4.36
2023-05-21T04:21:46.154Z,4.37
2023-05-21T04:22:46.188Z,4.57
2023-05-21T04:23:46.343Z,4.76
2023-05-21T04:24:46.274Z,5.08
2023-05-21T04:25:46.375Z,4.97
2023-05-21T04:26:46.421Z,5.08
2023-05-21T04:27:46.446Z,5.23
2023-05-21T04:28:46.545Z,5.44
2023-05-21T04:29:47.321Z,5.43
2023-05-21T04:30:46.651Z,5.42
2023-05-21T04:31:46.822Z,5.50
2023-05-21T04:32:46.885Z,5.63
2023-05-21T04:33:46.837Z,5.48
2023-05-21T04:34:46.943Z,5.41
2023-05-21T04:35:46.947Z,5.34
2023-05-21T04:36:47.066Z,5.21
2023-05-21T04:37:47.080Z,5.21
2023-05-21T04:38:47.115Z,5.47
2023-05-21T04:39:47.190Z,5.29
2023-05-21T04:40:47.269Z,5.28
2023-05-21T04:41:47.402Z,5.21
2023-05-21T04:42:47.354Z,5.29
2023-05-21T04:43:47.415Z,5.21
2023-05-21T04:44:47.465Z,5.28
2023-05-21T04:45:47.529Z,5.08
2023-05-21T04:46:47.622Z,5.21
2023-05-21T04:47:47.732Z,4.91
2023-05-21T04:48:47.726Z,4.70
2023-05-21T04:49:47.776Z,4.42
2023-05-21T04:50:47.820Z,4.44
2023-05-21T04:51:47.878Z,4.52
2023-05-21T04:52:47.950Z,4.59
2023-05-21T04:53:48.023Z,4.44
2023-05-21T04:54:48.056Z,4.29
2023-05-21T04:55:48.156Z,4.22
2023-05-21T04:56:48.189Z,4.48
2023-05-21T04:57:48.243Z,4.22
2023-05-21T04:58:48.285Z,4.20
2023-05-21T04:59:48.342Z,4.24
2023-05-21T05:00:48.465Z,4.15
2023-05-21T05:01:48.467Z,4.21
2023-05-21T05:02:48.611Z,4.15
2023-05-21T05:03:48.705Z,4.21
2023-05-21T05:04:48.673Z,4.11
2023-05-21T05:05:48.744Z,4.13
2023-05-21T05:06:48.800Z,3.99
2023-05-21T05:07:48.877Z,4.05
2023-05-21T05:08:48.907Z,4.06
2023-05-21T05:09:48.972Z,4.16
2023-05-21T05:10:49.060Z,4.17
2023-05-21T05:11:49.098Z,4.20
2023-05-21T05:12:49.207Z,4.17
2023-05-21T05:13:49.256Z,4.21
2023-05-21T05:14:49.275Z,4.29
2023-05-21T05:15:50.603Z,4.30
2023-05-21T05:16:49.416Z,4.23
2023-05-21T05:17:49.514Z,4.32
2023-05-21T05:18:49.558Z,4.43
2023-05-21T05:19:49.546Z,4.53
2023-05-21T05:20:49.613Z,4.55
2023-05-21T05:21:49.650Z,4.57
2023-05-21T05:22:49.737Z,4.56
2023-05-21T05:23:49.738Z,4.58
2023-05-21T05:24:49.849Z,4.53
2023-05-21T05:25:49.853Z,4.52
2023-05-21T05:26:49.911Z,4.58
2023-05-21T05:27:50.004Z,4.58
2023-05-21T05:28:50.030Z,4.55
2023-05-21T05:29:50.070Z,4.54
2023-05-21T05:30:50.125Z,4.61
2023-05-21T05:31:50.176Z,4.66
2023-05-21T05:32:50.279Z,4.74
2023-05-21T05:33:50.277Z,4.79
2023-05-21T05:34:50.322Z,4.72
2023-05-21T05:35:50.375Z,4.83
2023-05-21T05:36:50.441Z,4.76
2023-05-21T05:37:50.483Z,4.73
2023-05-21T05:38:50.529Z,4.77
2023-05-21T05:39:50.608Z,4.75
2023-05-21T05:40:50.624Z,4.69
2023-05-21T05:41:50.703Z,4.60
2023-05-21T05:42:50.737Z,4.68
2023-05-21T05:43:50.806Z,4.54
2023-05-21T05:44:50.801Z,4.52
2023-05-21T05:45:50.930Z,4.41
2023-05-21T05:46:50.959Z,4.36
2023-05-21T05:47:51.041Z,4.37
2023-05-21T05:48:51.050Z,4.18
2023-05-21T05:49:51.075Z,3.88
2023-05-21T05:50:51.168Z,3.86
2023-05-21T05:51:51.219Z,3.82
2023-05-21T05:52:51.284Z,3.82
2023-05-21T05:53:51.315Z,3.75
2023-05-21T05:54:51.353Z,3.67
2023-05-21T05:55:51.412Z,3.52
2023-05-21T05:56:53.048Z,3.52
2023-05-21T05:57:51.545Z,3.48
2023-05-21T05:58:51.561Z,3.37
2023-05-21T05:59:51.631Z,3.28
2023-05-21T06:00:51.663Z,3.25
2023-05-21T06:01:51.708Z,3.03
2023-05-21T06:02:51.856Z,3.07
2023-05-21T06:03:51.887Z,2.92
2023-05-21T06:04:51.857Z,2.89
2023-05-21T06:05:51.916Z,2.89
2023-05-21T06:06:51.949Z,2.78
2023-05-21T06:07:52.018Z,2.73
2023-05-21T06:08:52.055Z,2.70
2023-05-21T06:09:52.127Z,2.59
2023-05-21T06:10:52.130Z,2.69
2023-05-21T06:11:52.195Z,2.68
2023-05-21T06:12:52.221Z,2.58
2023-05-21T06:13:52.276Z,2.55
2023-05-21T06:14:52.336Z,2.40
2023-05-21T06:15:52.374Z,2.46
2023-05-21T06:16:52.374Z,2.45
2023-05-21T06:17:52.470Z,2.41
2023-05-21T06:18:52.499Z,2.47
2023-05-21T06:19:52.501Z,2.40
2023-05-21T06:20:52.549Z,2.46
2023-05-21T06:21:52.579Z,2.50
2023-05-21T06:22:52.649Z,2.47
2023-05-21T06:23:52.671Z,2.46
2023-05-21T06:24:52.728Z,2.45
2023-05-21T06:25:52.764Z,2.43
2023-05-21T06:26:52.837Z,2.47
2023-05-21T06:27:52.820Z,2.51
2023-05-21T06:28:52.834Z,2.40
2023-05-21T06:29:52.870Z,2.38
2023-05-21T06:30:52.920Z,2.36
2023-05-21T06:31:52.956Z,2.27
2023-05-21T06:32:53.096Z,2.38
2023-05-21T06:33:53.150Z,2.32
2023-05-21T06:34:53.016Z,2.33
2023-05-21T06:35:53.053Z,2.26
2023-05-21T06:36:53.098Z,2.28
2023-05-21T06:37:53.128Z,2.26
2023-05-21T06:38:53.138Z,2.23
2023-05-21T06:39:53.197Z,2.18
2023-05-21T06:40:53.188Z,2.06
2023-05-21T06:41:53.247Z,2.01
2023-05-21T06:42:53.367Z,2.00
2023-05-21T06:43:53.314Z,1.90
2023-05-21T06:44:53.313Z,1.87
2023-05-21T06:45:53.380Z,1.98
2023-05-21T06:46:53.402Z,1.98
2023-05-21T06:47:53.440Z,1.90
2023-05-21T06:48:53.480Z,1.86
2023-05-21T06:49:53.496Z,1.89
2023-05-21T06:50:53.521Z,1.92
2023-05-21T06:51:53.570Z,1.88
2023-05-21T06:52:53.579Z,1.92
2023-05-21T06:53:53.642Z,2.03
2023-05-21T06:54:53.671Z,1.99
2023-05-21T06:55:53.859Z,1.99
2023-05-21T06:56:53.704Z,1.93
2023-05-21T06:57:53.732Z,1.97
2023-05-21T06:58:53.785Z,1.93
2023-05-21T06:59:53.806Z,1.85
2023-05-21T07:00:53.885Z,1.79
2023-05-21T07:01:53.920Z,1.77
2023-05-21T07:02:53.961Z,1.74
2023-05-21T07:03:53.924Z,1.79
2023-05-21T07:04:53.956Z,1.75
2023-05-21T07:05:53.964Z,1.76
2023-05-21T07:06:54.004Z,1.77
2023-05-21T07:07:53.990Z,1.80
2023-05-21T07:08:54.036Z,1.82
2023-05-21T07:09:54.061Z,1.66
2023-05-21T07:10:54.123Z,1.71
2023-05-21T07:11:54.085Z,1.66
2023-05-21T07:12:54.097Z,1.72
2023-05-21T07:13:54.171Z,1.67
2023-05-21T07:14:54.175Z,1.66
2023-05-21T07:15:54.192Z,1.74
2023-05-21T07:16:54.216Z,1.78
2023-05-21T07:17:54.303Z,1.78
2023-05-21T07:18:54.256Z,1.73
2023-05-21T07:19:54.224Z,1.78
2023-05-21T07:20:54.258Z,1.74
2023-05-21T07:21:54.328Z,1.70
2023-05-21T07:22:54.295Z,1.76
2023-05-21T07:23:54.301Z,1.75
2023-05-21T07:24:54.320Z,1.78
2023-05-21T07:25:54.303Z,1.82
2023-05-21T07:26:54.324Z,1.83
2023-05-21T07:27:54.315Z,1.82
2023-05-21T07:28:54.335Z,1.91
2023-05-21T07:29:54.346Z,1.99
2023-05-21T07:30:54.393Z,2.07
2023-05-21T07:31:54.324Z,2.20
2023-05-21T07:32:54.375Z,2.26
2023-05-21T07:33:54.330Z,2.21
2023-05-21T07:34:54.613Z,2.22
2023-05-21T07:35:54.340Z,2.32
2023-05-21T07:36:54.334Z,2.32
2023-05-21T07:37:54.419Z,2.41
2023-05-21T07:38:54.363Z,2.53
2023-05-21T07:39:54.305Z,2.50
2023-05-21T07:40:54.346Z,2.47
2023-05-21T07:41:54.411Z,2.16
2023-05-21T07:42:54.412Z,2.11
2023-05-21T07:43:54.441Z,2.19
2023-05-21T07:44:54.496Z,2.39
2023-05-21T07:45:54.550Z,2.65
2023-05-21T07:46:54.555Z,2.79
2023-05-21T07:47:54.602Z,2.94
2023-05-21T07:48:54.627Z,2.86
2023-05-21T07:49:54.702Z,3.06
2023-05-21T07:50:54.782Z,3.10
2023-05-21T07:51:54.832Z,3.16
2023-05-21T07:52:54.965Z,3.02
2023-05-21T07:53:55.456Z,2.91
2023-05-21T07:54:55.026Z,3.01
2023-05-21T07:55:55.545Z,3.49
2023-05-21T07:56:55.154Z,3.60
2023-05-21T07:57:55.169Z,3.64
2023-05-21T07:58:55.245Z,3.73
2023-05-21T07:59:55.330Z,4.00
2023-05-21T08:00:55.356Z,3.95
2023-05-21T08:01:55.381Z,4.15
2023-05-21T08:02:55.511Z,4.33
2023-05-21T08:03:55.608Z,4.34
2023-05-21T08:04:55.578Z,4.41
2023-05-21T08:05:55.608Z,4.70
2023-05-21T08:06:55.661Z,4.31
2023-05-21T08:07:55.670Z,4.22
2023-05-21T08:08:55.727Z,4.54
2023-05-21T08:09:55.798Z,4.73
2023-05-21T08:10:55.831Z,4.84
2023-05-21T08:11:55.840Z,4.93
2023-05-21T08:12:55.910Z,4.70
2023-05-21T08:13:55.948Z,4.25
2023-05-21T08:14:56.000Z,3.97
2023-05-21T08:15:56.066Z,4.12
2023-05-21T08:16:56.066Z,4.16
2023-05-21T08:17:56.104Z,4.49
2023-05-21T08:18:56.150Z,4.50
2023-05-21T08:19:56.179Z,4.62
2023-05-21T08:20:56.179Z,4.45
2023-05-21T08:21:56.238Z,4.52
2023-05-21T08:22:56.223Z,4.57
2023-05-21T08:23:56.259Z,4.71
2023-05-21T08:24:56.304Z,4.84
2023-05-21T08:25:56.322Z,4.94
2023-05-21T08:26:56.325Z,4.93
2023-05-21T08:27:56.375Z,4.96
2023-05-21T08:28:56.394Z,4.97
2023-05-21T08:29:56.446Z,5.12
2023-05-21T08:30:56.453Z,5.14
2023-05-21T08:31:56.509Z,5.03
2023-05-21T08:32:56.545Z,4.95
2023-05-21T08:33:56.533Z,4.88
2023-05-21T08:34:56.553Z,4.89
2023-05-21T08:35:56.605Z,4.73
2023-05-21T08:36:56.591Z,4.44
2023-05-21T08:37:56.617Z,4.08
2023-05-21T08:38:56.595Z,3.76
2023-05-21T08:39:56.642Z,3.83
2023-05-21T08:40:56.684Z,3.55
2023-05-21T08:41:56.666Z,3.44
2023-05-21T08:42:56.676Z,3.40
2023-05-21T08:43:56.724Z,3.08
2023-05-21T08:44:56.747Z,2.83
2023-05-21T08:45:56.759Z,2.88
2023-05-21T08:46:56.765Z,2.73
2023-05-21T08:47:56.870Z,2.96
2023-05-21T08:48:56.788Z,3.05
2023-05-21T08:49:56.814Z,2.85
2023-05-21T08:50:56.806Z,3.14
2023-05-21T08:51:56.828Z,3.17
2023-05-21T08:52:56.819Z,3.18
2023-05-21T08:53:56.850Z,3.18
2023-05-21T08:54:56.897Z,3.05
2023-05-21T08:55:56.893Z,3.17
2023-05-21T08:56:56.907Z,3.14
2023-05-21T08:57:56.877Z,3.18
2023-05-21T08:58:56.869Z,3.22
2023-05-21T08:59:56.934Z,3.37
2023-05-21T09:00:56.907Z,3.44
2023-05-21T09:01:57.032Z,3.38
2023-05-21T09:02:56.968Z,3.38
2023-05-21T09:04:04.953Z,3.35
2023-05-21T09:04:57.930Z,3.35
2023-05-21T09:05:56.913Z,3.17
2023-05-21T09:06:56.891Z,2.85
2023-05-21T09:07:56.879Z,2.81
2023-05-21T09:08:56.858Z,2.57
2023-05-21T09:09:56.856Z,2.47
2023-05-21T09:10:56.883Z,2.40
2023-05-21T09:11:56.843Z,2.38
2023-05-21T09:12:56.867Z,2.37
2023-05-21T09:13:56.831Z,2.33
2023-05-21T09:14:56.812Z,2.34
2023-05-21T09:15:56.847Z,2.27
2023-05-21T09:16:56.933Z,2.27
2023-05-21T09:17:56.928Z,2.09
2023-05-21T09:18:56.841Z,2.01
2023-05-21T09:19:56.813Z,1.98
2023-05-21T09:20:56.785Z,1.73
2023-05-21T09:21:56.796Z,1.52
2023-05-21T09:22:56.789Z,1.32
2023-05-21T09:23:56.780Z,1.12
2023-05-21T09:24:56.756Z,1.01
2023-05-21T09:25:56.810Z,0.89
2023-05-21T09:26:56.772Z,0.86
2023-05-21T09:27:56.730Z,0.79
2023-05-21T09:28:56.738Z,0.75
2023-05-21T09:29:56.716Z,0.73
2023-05-21T09:30:56.814Z,0.73
2023-05-21T09:31:56.749Z,0.68
2023-05-21T09:32:56.763Z,0.63
2023-05-21T09:33:56.721Z,0.58
2023-05-21T09:34:56.716Z,0.58
2023-05-21T09:35:56.721Z,0.56
2023-05-21T09:36:56.707Z,0.58
2023-05-21T09:37:56.716Z,0.50
2023-05-21T09:38:56.664Z,0.50
2023-05-21T09:39:56.666Z,0.51
2023-05-21T09:40:56.762Z,0.53
2023-05-21T09:41:56.740Z,0.55
2023-05-21T09:42:56.803Z,0.50
2023-05-21T09:43:56.867Z,0.50
2023-05-21T09:44:56.955Z,0.50
2023-05-21T09:45:58.979Z,0.50
2023-05-21T09:46:57.105Z,0.51
2023-05-21T09:47:57.006Z,0.51
2023-05-21T09:48:56.962Z,0.46
2023-05-21T09:49:56.984Z,0.43
2023-05-21T09:50:56.956Z,0.42
2023-05-21T09:51:56.961Z,0.46
2023-05-21T09:52:56.928Z,0.50
2023-05-21T09:53:56.941Z,0.52
2023-05-21T09:54:56.929Z,0.50
2023-05-21T09:55:56.933Z,0.52
2023-05-21T09:56:56.953Z,0.53
2023-05-21T09:57:56.938Z,0.50
2023-05-21T09:58:56.904Z,0.50
2023-05-21T09:59:56.907Z,0.50
2023-05-21T10:00:56.898Z,0.47
2023-05-21T10:01:56.938Z,0.49
2023-05-21T10:02:56.938Z,0.49
2023-05-21T10:03:56.941Z,0.49
2023-05-21T10:04:56.884Z,0.51
2023-05-21T10:05:56.878Z,0.51
2023-05-21T10:06:56.879Z,0.50
2023-05-21T10:07:56.851Z,0.47
2023-05-21T10:08:56.852Z,0.50
2023-05-21T10:09:56.841Z,0.50
2023-05-21T10:10:56.881Z,0.50
2023-05-21T10:11:56.924Z,0.50
2023-05-21T10:12:56.976Z,0.49
2023-05-21T10:13:56.978Z,0.50
2023-05-21T10:14:57.044Z,0.51
2023-05-21T10:15:57.113Z,0.51
2023-05-21T10:16:57.123Z,0.52
2023-05-21T10:17:57.179Z,0.51
2023-05-21T10:18:57.222Z,0.50
2023-05-21T10:19:57.227Z,0.50
2023-05-21T10:20:57.240Z,0.51
2023-05-21T10:21:57.305Z,0.55
2023-05-21T10:22:57.347Z,0.60
2023-05-21T10:23:57.369Z,0.57
2023-05-21T10:24:57.421Z,0.56
2023-05-21T10:25:57.475Z,0.55
2023-05-21T10:26:57.465Z,0.53
2023-05-21T10:27:57.532Z,0.52
2023-05-21T10:28:57.553Z,0.54
2023-05-21T10:29:57.609Z,0.57
2023-05-21T10:30:57.663Z,0.56
2023-05-21T10:31:57.683Z,0.57
2023-05-21T10:32:57.934Z,0.57
2023-05-21T10:33:57.743Z,0.58
2023-05-21T10:34:59.315Z,0.62
2023-05-21T10:35:57.787Z,0.60
2023-05-21T10:36:57.772Z,0.58
2023-05-21T10:37:57.768Z,0.59
2023-05-21T10:38:57.731Z,0.59
2023-05-21T10:39:57.723Z,0.55
2023-05-21T10:40:57.755Z,0.52
2023-05-21T10:41:59.225Z,0.51
2023-05-21T10:42:57.719Z,0.52
2023-05-21T10:43:57.683Z,0.50
2023-05-21T10:44:57.712Z,0.50
2023-05-21T10:45:57.776Z,0.51
2023-05-21T10:46:57.696Z,0.52
2023-05-21T10:47:57.728Z,0.50
2023-05-21T10:48:57.671Z,0.50
2023-05-21T10:49:57.657Z,0.51
2023-05-21T10:50:57.675Z,0.54
2023-05-21T10:51:57.681Z,0.54
2023-05-21T10:52:57.670Z,0.52
2023-05-21T10:53:57.635Z,0.52
2023-05-21T10:54:57.653Z,0.51
2023-05-21T10:55:57.617Z,0.55
2023-05-21T10:56:57.602Z,0.57
2023-05-21T10:57:57.648Z,0.58
2023-05-21T10:58:57.649Z,0.56
2023-05-21T10:59:57.635Z,0.56
2023-05-21T11:00:57.670Z,0.60
2023-05-21T11:01:57.609Z,0.57
2023-05-21T11:02:57.664Z,0.58
2023-05-21T11:03:57.627Z,0.52
2023-05-21T11:04:57.585Z,0.55
2023-05-21T11:05:57.603Z,0.54
2023-05-21T11:06:58.624Z,0.51
2023-05-21T11:07:57.689Z,0.50
2023-05-21T11:08:57.564Z,0.50
2023-05-21T11:09:57.554Z,0.50
2023-05-21T11:10:57.606Z,0.51
2023-05-21T11:11:57.527Z,0.52
2023-05-21T11:12:57.532Z,0.50
2023-05-21T11:13:57.535Z,0.50
2023-05-21T11:14:57.591Z,0.50
2023-05-21T11:15:57.617Z,0.52
2023-05-21T11:16:57.638Z,0.53
2023-05-21T11:17:57.688Z,0.50
2023-05-21T11:18:57.658Z,0.52
2023-05-21T11:19:57.644Z,0.52
2023-05-21T11:20:57.633Z,0.52
2023-05-21T11:21:57.647Z,0.52
2023-05-21T11:22:57.637Z,0.52
2023-05-21T11:23:57.711Z,0.52
2023-05-21T11:24:57.719Z,0.50
2023-05-21T11:25:57.714Z,0.50
2023-05-21T11:26:57.729Z,0.53
2023-05-21T11:27:57.740Z,0.55
2023-05-21T11:28:57.785Z,0.54
2023-05-21T11:29:57.770Z,0.57
2023-05-21T11:30:57.810Z,0.55
2023-05-21T11:31:57.806Z,0.59
2023-05-21T11:32:57.841Z,0.62
2023-05-21T11:33:57.827Z,0.61
2023-05-21T11:34:57.837Z,0.65
2023-05-21T11:35:57.834Z,0.65
2023-05-21T11:36:57.901Z,0.71
2023-05-21T11:37:57.894Z,0.71
2023-05-21T11:38:57.927Z,0.71
2023-05-21T11:39:57.923Z,0.77
2023-05-21T11:40:57.922Z,0.82
2023-05-21T11:41:57.933Z,0.82
2023-05-21T11:42:57.998Z,0.85
2023-05-21T11:43:57.989Z,0.90
2023-05-21T11:44:58.009Z,0.94
2023-05-21T11:45:58.076Z,0.99
2023-05-21T11:46:58.045Z,1.03
2023-05-21T11:47:58.111Z,1.03
2023-05-21T11:48:58.094Z,1.04
2023-05-21T11:49:58.080Z,1.08
2023-05-21T11:50:58.138Z,1.07
2023-05-21T11:51:58.140Z,1.05
2023-05-21T11:52:58.182Z,1.06
2023-05-21T11:53:58.169Z,1.12
2023-05-21T11:54:58.209Z,1.16
2023-05-21T11:55:58.244Z,1.18
2023-05-21T11:56:58.214Z,1.24
2023-05-21T11:57:58.238Z,1.30
2023-05-21T11:58:58.258Z,1.54
2023-05-21T11:59:58.356Z,1.65
2023-05-21T12:00:58.315Z,1.63
2023-05-21T12:01:58.323Z,1.77
2023-05-21T12:02:58.428Z,1.81
2023-05-21T12:03:58.393Z,1.85
2023-05-21T12:04:58.321Z,1.90
2023-05-21T12:05:58.509Z,1.88
2023-05-21T12:06:58.413Z,1.85
2023-05-21T12:07:59.120Z,2.05
2023-05-21T12:08:58.625Z,2.23
2023-05-21T12:09:58.473Z,2.27
2023-05-21T12:10:58.483Z,2.18
2023-05-21T12:11:58.565Z,2.22
2023-05-21T12:12:58.537Z,2.30
2023-05-21T12:13:58.558Z,2.32
2023-05-21T12:14:58.623Z,2.36
2023-05-21T12:15:58.616Z,2.56
2023-05-21T12:16:58.714Z,2.66
2023-05-21T12:17:58.638Z,2.70
2023-05-21T12:18:58.670Z,2.88
2023-05-21T12:19:58.696Z,2.96
2023-05-21T12:20:58.702Z,3.02
2023-05-21T12:21:58.735Z,3.03
2023-05-21T12:22:58.716Z,3.26
2023-05-21T12:23:58.730Z,3.19
2023-05-21T12:24:58.777Z,3.17
2023-05-21T12:25:58.783Z,3.25
2023-05-21T12:26:58.799Z,3.38
2023-05-21T12:27:59.112Z,3.52
2023-05-21T12:28:59.619Z,3.53
2023-05-21T12:29:58.863Z,3.64
2023-05-21T12:30:58.867Z,3.74
2023-05-21T12:31:58.842Z,3.86
2023-05-21T12:32:58.929Z,4.22
2023-05-21T12:33:58.890Z,4.45
2023-05-21T12:34:58.900Z,4.30
2023-05-21T12:35:58.964Z,4.59
2023-05-21T12:36:58.955Z,4.79
2023-05-21T12:37:58.969Z,5.12
2023-05-21T12:38:58.950Z,4.97
2023-05-21T12:39:59.004Z,5.43
2023-05-21T12:40:58.990Z,5.69
2023-05-21T12:41:59.038Z,6.02
2023-05-21T12:42:59.064Z,6.39
2023-05-21T12:43:59.057Z,6.40
2023-05-21T12:44:59.105Z,6.80
2023-05-21T12:45:59.155Z,7.10
2023-05-21T12:46:59.134Z,7.41
2023-05-21T12:47:59.200Z,7.43
2023-05-21T12:48:59.171Z,7.34
2023-05-21T12:49:59.175Z,7.23
2023-05-21T12:50:59.225Z,7.36
2023-05-21T12:51:59.232Z,7.07
2023-05-21T12:52:59.231Z,6.57
2023-05-21T12:53:59.275Z,6.38
2023-05-21T12:54:59.277Z,5.86
2023-05-21T12:55:59.274Z,5.35
2023-05-21T12:56:59.333Z,5.40
2023-05-21T12:57:59.354Z,5.57
2023-05-21T12:58:59.330Z,5.83
2023-05-21T12:59:59.347Z,6.01
2023-05-21T13:00:59.437Z,6.03
2023-05-21T13:01:59.472Z,5.93
2023-05-21T13:02:59.389Z,5.78
2023-05-21T13:03:59.425Z,5.30
2023-05-21T13:04:59.406Z,5.30
2023-05-21T13:05:59.413Z,5.48
2023-05-21T13:06:59.439Z,5.48
2023-05-21T13:07:59.428Z,5.71
2023-05-21T13:08:59.455Z,5.91
2023-05-21T13:09:59.482Z,6.04
2023-05-21T13:10:59.444Z,6.19
2023-05-21T13:11:59.486Z,6.42
2023-05-21T13:12:59.486Z,6.89
2023-05-21T13:13:59.501Z,7.06
2023-05-21T13:14:59.514Z,7.38
2023-05-21T13:15:59.593Z,7.32
2023-05-21T13:16:59.546Z,6.62
2023-05-21T13:17:59.550Z,6.90
2023-05-21T13:18:59.544Z,6.83